Hawthorne, Wisconsin
Current Conditions -  °F | °C
As of 5:15 PM on Friday 31 Oct 2014 (Local Time) from KOLG Reporting Station
Clear Clear  
Wind Chill: 34°   Ceiling: Unl
Heat Index: 34°   Visibility: 10mi
Dew Point: 14°   Wind: 3mph
Humidity: 44%   Direction: 10°N
Pressure: 30.48"   Gusts: NA
Location:  46.5°N, 91.86°W
Report Text: KOLG 312215Z AUTO 01003KT 10SM CLR 01/M10 A3048 RMK AO1
Loading
Personal Weather Stations






























Interactive Weather Map
Tropical Storm Tracking
New forecast layout! Learn more

10-Day Weather Forecast

Advertisements
Track Severe Weather on mobile